createdAt,value
2018-03-20T00:02:24.844Z,7.57
2018-03-20T00:04:50.941Z,8.23
2018-03-20T00:07:17.067Z,7.97
2018-03-20T00:09:43.135Z,8.53
2018-03-20T00:12:09.213Z,7.60
2018-03-20T00:14:35.355Z,7.80
2018-03-20T00:17:01.483Z,8.03
2018-03-20T00:19:27.554Z,8.30
2018-03-20T00:21:53.615Z,8.17
2018-03-20T00:24:19.637Z,8.53
2018-03-20T00:26:45.672Z,8.50
2018-03-20T00:29:11.706Z,7.80
2018-03-20T00:31:37.773Z,7.90
2018-03-20T00:34:03.810Z,8.50
2018-03-20T00:36:29.883Z,8.90
2018-03-20T00:38:55.950Z,7.60
2018-03-20T00:41:22.036Z,9.53
2018-03-20T00:46:41.328Z,8.13
2018-03-20T00:49:07.653Z,7.90
2018-03-20T00:51:33.738Z,8.23
2018-03-20T00:54:00.171Z,7.73
2018-03-20T00:56:26.243Z,8.20
2018-03-20T00:58:52.263Z,7.03
2018-03-20T01:01:18.394Z,7.70
2018-03-20T01:03:44.477Z,7.37
2018-03-20T01:06:10.547Z,7.13
2018-03-20T01:08:36.637Z,7.53
2018-03-20T01:11:02.758Z,9.23
2018-03-20T01:13:28.795Z,5.70
2018-03-20T01:15:54.858Z,6.63
2018-03-20T01:18:20.887Z,8.17
2018-03-20T01:20:46.993Z,7.70
2018-03-20T01:23:13.055Z,8.70
2018-03-20T01:25:39.166Z,8.27
2018-03-20T01:28:20.138Z,8.00
2018-03-20T01:30:46.159Z,8.40
2018-03-20T01:33:12.200Z,8.83
2018-03-20T01:35:38.219Z,8.70
2018-03-20T01:38:04.480Z,9.20
2018-03-20T01:40:30.524Z,7.30
2018-03-20T01:42:56.589Z,7.80
2018-03-20T01:45:22.715Z,8.97
2018-03-20T01:47:48.738Z,7.83
2018-03-20T01:50:14.824Z,8.40
2018-03-20T01:52:40.859Z,8.47
2018-03-20T01:55:06.915Z,8.10
2018-03-20T01:57:32.958Z,8.53
2018-03-20T01:59:59.032Z,8.70
2018-03-20T02:02:25.105Z,8.63
2018-03-20T02:04:51.131Z,8.23
2018-03-20T02:07:17.316Z,8.30
2018-03-20T02:09:43.468Z,7.60
2018-03-20T02:12:09.548Z,8.53
2018-03-20T02:14:35.724Z,7.00
2018-03-20T02:17:01.844Z,8.00
2018-03-20T02:19:27.882Z,8.27
2018-03-20T02:21:54.001Z,7.17
2018-03-20T02:24:20.043Z,6.87
2018-03-20T02:26:46.087Z,7.97
2018-03-20T02:29:12.106Z,7.53
2018-03-20T02:31:38.187Z,7.60
2018-03-20T02:34:04.231Z,7.57
2018-03-20T02:36:30.298Z,6.63
2018-03-20T02:38:56.369Z,7.20
2018-03-20T02:41:22.435Z,6.63
2018-03-20T02:43:48.509Z,7.53
2018-03-20T02:46:19.378Z,6.70
2018-03-20T02:48:45.433Z,7.03
2018-03-20T02:51:11.563Z,7.00
2018-03-20T02:53:37.795Z,8.63
2018-03-20T02:56:03.817Z,6.87
2018-03-20T02:58:29.866Z,6.50
2018-03-20T03:00:55.934Z,6.97
2018-03-20T03:03:21.962Z,7.33
2018-03-20T03:05:48.019Z,6.50
2018-03-20T03:08:14.057Z,7.23
2018-03-20T03:10:40.119Z,5.43
2018-03-20T03:13:06.242Z,5.70
2018-03-20T03:15:32.656Z,6.00
2018-03-20T03:17:58.774Z,6.50
2018-03-20T03:20:24.831Z,6.13
2018-03-20T03:22:50.843Z,6.23
2018-03-20T03:25:17.725Z,7.07
2018-03-20T03:27:43.875Z,7.63
2018-03-20T03:30:09.957Z,6.67
2018-03-20T03:32:36.048Z,7.00
2018-03-20T03:35:02.125Z,6.77
2018-03-20T03:37:28.230Z,7.33
2018-03-20T03:39:54.281Z,7.77
2018-03-20T03:42:20.326Z,7.63
2018-03-20T03:44:46.416Z,6.10
2018-03-20T03:47:12.647Z,6.67
2018-03-20T03:49:38.700Z,7.90
2018-03-20T03:52:04.737Z,6.80
2018-03-20T03:54:30.787Z,7.90
2018-03-20T03:56:56.829Z,8.23
2018-03-20T03:59:23.036Z,9.03
2018-03-20T04:01:49.104Z,7.53
2018-03-20T04:04:15.121Z,7.60
2018-03-20T04:06:41.169Z,7.53
2018-03-20T04:09:08.261Z,7.87
2018-03-20T04:11:34.305Z,9.47
2018-03-20T04:14:00.366Z,9.83
2018-03-20T04:16:26.516Z,11.00
2018-03-20T04:18:52.595Z,10.47
2018-03-20T04:21:18.638Z,8.93
2018-03-20T04:23:44.725Z,10.43
2018-03-20T04:26:10.771Z,10.03
2018-03-20T04:28:36.877Z,10.40
2018-03-20T04:31:02.928Z,11.00
2018-03-20T04:33:28.990Z,7.03
2018-03-20T04:35:55.112Z,10.40
2018-03-20T04:38:21.147Z,10.13
2018-03-20T04:40:47.359Z,10.87
2018-03-20T04:43:13.418Z,11.80
2018-03-20T04:45:39.455Z,10.13
2018-03-20T04:48:05.526Z,10.63
2018-03-20T04:50:31.577Z,12.83
2018-03-20T04:52:57.668Z,12.93
2018-03-20T04:55:23.682Z,13.57
2018-03-20T04:57:49.756Z,13.57
2018-03-20T05:00:15.814Z,13.17
2018-03-20T05:02:41.918Z,10.27
2018-03-20T05:05:08.014Z,12.33
2018-03-20T05:07:34.058Z,13.87
2018-03-20T05:10:00.072Z,14.20
2018-03-20T05:12:26.215Z,12.50
2018-03-20T05:14:52.230Z,15.37
2018-03-20T05:17:18.279Z,13.13
2018-03-20T05:19:50.315Z,13.70
2018-03-20T05:22:19.314Z,12.17
2018-03-20T05:24:45.336Z,15.70
2018-03-20T05:27:11.396Z,17.17
2018-03-20T05:29:37.568Z,15.07
2018-03-20T05:32:03.599Z,14.73
2018-03-20T05:34:29.694Z,15.40
2018-03-20T05:36:55.749Z,12.70
2018-03-20T05:39:21.824Z,14.33
2018-03-20T05:41:47.898Z,15.13
2018-03-20T05:44:14.042Z,16.33
2018-03-20T05:46:43.984Z,15.47
2018-03-20T05:49:12.915Z,14.97
2018-03-20T05:54:37.859Z,14.93
2018-03-20T05:57:03.947Z,15.13
2018-03-20T05:59:29.979Z,15.83
2018-03-20T06:01:56.093Z,13.50
2018-03-20T06:04:22.284Z,15.23
2018-03-20T06:06:48.299Z,15.37
2018-03-20T06:09:14.372Z,15.33
2018-03-20T06:11:40.560Z,14.07
2018-03-20T06:14:06.666Z,16.03
2018-03-20T06:16:32.826Z,15.07
2018-03-20T06:18:58.893Z,13.30
2018-03-20T06:21:24.929Z,19.73
2018-03-20T06:23:51.040Z,13.90
2018-03-20T06:26:17.098Z,21.23
2018-03-20T06:28:43.122Z,20.87
2018-03-20T06:31:09.208Z,21.10
2018-03-20T06:33:35.252Z,22.30
2018-03-20T06:36:01.348Z,20.43
2018-03-20T06:38:27.410Z,23.67
2018-03-20T06:40:53.508Z,25.03
2018-03-20T06:43:19.645Z,18.70
2018-03-20T06:45:45.723Z,26.80
2018-03-20T06:48:11.844Z,27.27
2018-03-20T06:50:37.898Z,19.20
2018-03-20T06:53:04.070Z,22.60
2018-03-20T06:55:30.118Z,21.97
2018-03-20T06:57:56.176Z,18.83
2018-03-20T07:00:22.209Z,25.10
2018-03-20T07:02:48.568Z,18.90
2018-03-20T07:05:14.640Z,21.07
2018-03-20T07:07:40.711Z,16.67
2018-03-20T07:10:06.766Z,17.10
2018-03-20T07:12:32.854Z,19.03
2018-03-20T07:14:59.132Z,24.87
2018-03-20T07:17:25.272Z,20.03
2018-03-20T07:19:51.322Z,22.20
2018-03-20T07:22:32.337Z,23.07
2018-03-20T07:24:58.414Z,20.30
2018-03-20T07:27:24.460Z,22.07
2018-03-20T07:29:50.484Z,21.20
2018-03-20T07:32:17.938Z,17.80
2018-03-20T07:34:44.056Z,14.70
2018-03-20T07:37:10.082Z,15.00
2018-03-20T07:39:36.138Z,13.33
2018-03-20T07:42:03.888Z,15.37
2018-03-20T07:44:30.007Z,16.00
2018-03-20T07:46:56.047Z,17.17
2018-03-20T07:49:22.185Z,15.67
2018-03-20T07:51:48.441Z,13.17
2018-03-20T07:54:14.513Z,17.53
2018-03-20T07:56:40.583Z,13.97
2018-03-20T07:59:06.617Z,15.87
2018-03-20T08:01:32.865Z,13.93
2018-03-20T08:03:58.850Z,13.63
2018-03-20T08:06:24.898Z,13.90
2018-03-20T08:08:51.016Z,13.27
2018-03-20T08:11:17.044Z,12.77
2018-03-20T08:13:43.193Z,12.87
2018-03-20T08:16:09.393Z,10.80
2018-03-20T08:21:28.586Z,11.10
2018-03-20T08:23:54.753Z,9.40
2018-03-20T08:26:20.869Z,10.47
2018-03-20T08:28:46.939Z,9.63
2018-03-20T08:31:12.984Z,10.07
2018-03-20T08:33:39.054Z,9.80
2018-03-20T08:36:05.182Z,8.90
2018-03-20T08:38:31.239Z,8.10
2018-03-20T08:40:57.328Z,7.60
2018-03-20T08:43:23.415Z,7.63
2018-03-20T08:45:49.681Z,8.00
2018-03-20T08:48:15.737Z,7.10
2018-03-20T08:50:41.813Z,7.50
2018-03-20T08:53:07.973Z,6.67
2018-03-20T08:55:34.030Z,6.90
2018-03-20T08:58:00.091Z,5.80
2018-03-20T09:00:26.177Z,6.27
2018-03-20T09:02:52.289Z,5.93
2018-03-20T09:05:18.359Z,5.27
2018-03-20T09:07:44.433Z,5.13
2018-03-20T09:10:10.448Z,4.73
2018-03-20T09:12:36.508Z,5.23
2018-03-20T09:15:03.461Z,4.47
2018-03-20T09:17:29.514Z,4.60
2018-03-20T09:19:55.604Z,5.00
2018-03-20T09:22:21.627Z,4.50
2018-03-20T09:24:47.712Z,4.63
2018-03-20T09:27:13.744Z,4.50
2018-03-20T09:29:39.817Z,4.97
2018-03-20T09:32:05.827Z,4.93
2018-03-20T09:34:32.176Z,4.80
2018-03-20T09:36:58.190Z,4.57
2018-03-20T09:39:24.439Z,4.30
2018-03-20T09:41:50.494Z,4.40
2018-03-20T09:44:16.669Z,4.27
2018-03-20T09:46:42.759Z,4.90
2018-03-20T09:49:08.859Z,4.57
2018-03-20T09:51:35.150Z,4.60
2018-03-20T09:54:01.212Z,4.87
2018-03-20T09:56:27.272Z,5.10
2018-03-20T09:58:53.376Z,4.97
2018-03-20T10:01:19.429Z,4.83
2018-03-20T10:03:45.483Z,4.23
2018-03-20T10:06:11.529Z,5.00
2018-03-20T10:08:37.579Z,4.63
2018-03-20T10:11:03.720Z,4.60
2018-03-20T10:13:29.869Z,4.70
2018-03-20T10:15:55.962Z,4.27
2018-03-20T10:18:22.207Z,4.23
2018-03-20T10:20:48.253Z,4.77
2018-03-20T10:23:14.458Z,4.43
2018-03-20T10:25:40.504Z,4.27
2018-03-20T10:28:06.622Z,4.43
2018-03-20T10:30:32.674Z,4.50
2018-03-20T10:32:58.767Z,4.23
2018-03-20T10:35:24.856Z,5.10
2018-03-20T10:37:51.105Z,4.00
2018-03-20T10:40:17.227Z,4.23
2018-03-20T10:42:43.286Z,4.03
2018-03-20T10:45:09.387Z,3.53
2018-03-20T10:47:35.448Z,4.20
2018-03-20T10:50:01.504Z,4.60
2018-03-20T10:52:27.810Z,4.00
2018-03-20T10:54:53.861Z,4.13
2018-03-20T10:57:20.166Z,4.10
2018-03-20T10:59:46.221Z,3.87
2018-03-20T11:02:18.249Z,4.10
2018-03-20T11:04:44.312Z,3.67
2018-03-20T11:07:10.489Z,3.37
2018-03-20T11:09:36.603Z,3.67
2018-03-20T11:12:02.692Z,3.67
2018-03-20T11:14:28.768Z,3.90
2018-03-20T11:16:54.833Z,3.97
2018-03-20T11:19:20.948Z,4.00
2018-03-20T11:21:46.968Z,4.10
2018-03-20T11:24:13.188Z,3.93
2018-03-20T11:26:39.230Z,4.50
2018-03-20T11:29:05.282Z,4.80
2018-03-20T11:31:31.569Z,4.90
2018-03-20T11:33:57.590Z,4.20
2018-03-20T11:36:23.765Z,4.47
2018-03-20T11:38:49.812Z,4.73
2018-03-20T11:41:15.911Z,3.70
2018-03-20T11:43:42.220Z,3.97
2018-03-20T11:46:08.222Z,3.60
2018-03-20T11:48:34.465Z,4.80
2018-03-20T11:51:00.575Z,4.30
2018-03-20T11:53:26.778Z,4.63
2018-03-20T11:55:52.849Z,3.80
2018-03-20T11:58:18.941Z,4.50
2018-03-20T12:00:45.025Z,5.07
2018-03-20T12:03:11.242Z,6.50
2018-03-20T12:05:37.390Z,4.90
2018-03-20T12:08:15.672Z,5.83
2018-03-20T12:10:41.768Z,3.47
2018-03-20T12:13:07.830Z,5.20
2018-03-20T12:15:34.056Z,4.20
2018-03-20T12:18:00.114Z,3.20
2018-03-20T12:20:26.217Z,2.80
2018-03-20T12:22:52.384Z,2.63
2018-03-20T12:25:18.525Z,3.10
2018-03-20T12:27:44.569Z,3.10
2018-03-20T12:30:10.626Z,3.00
2018-03-20T12:32:36.889Z,2.80
2018-03-20T12:37:56.094Z,2.50
2018-03-20T12:40:22.176Z,2.73
2018-03-20T12:42:48.326Z,2.23
2018-03-20T12:45:14.401Z,3.90
2018-03-20T12:47:40.404Z,2.70
2018-03-20T12:50:06.475Z,2.50
2018-03-20T12:52:33.336Z,2.57
2018-03-20T12:54:59.402Z,2.57
2018-03-20T12:57:25.452Z,2.50
2018-03-20T12:59:51.528Z,2.30
2018-03-20T13:02:17.628Z,2.60
2018-03-20T13:04:43.856Z,2.73
2018-03-20T13:07:09.878Z,2.50
2018-03-20T13:09:35.894Z,2.53
2018-03-20T13:12:01.992Z,2.50
2018-03-20T13:14:28.240Z,2.70
2018-03-20T13:16:54.326Z,2.83
2018-03-20T13:19:20.401Z,2.40
2018-03-20T13:21:46.416Z,2.53
2018-03-20T13:24:12.551Z,2.30
2018-03-20T13:26:38.628Z,2.57
2018-03-20T13:29:04.723Z,2.40
2018-03-20T13:31:30.760Z,2.40
2018-03-20T13:33:56.843Z,2.20
2018-03-20T13:36:23.045Z,1.80
2018-03-20T13:38:49.112Z,1.87
2018-03-20T13:41:15.270Z,2.00
2018-03-20T13:43:41.491Z,1.97
2018-03-20T13:46:07.659Z,2.20
2018-03-20T13:48:33.763Z,2.10
2018-03-20T13:50:59.822Z,1.90
2018-03-20T13:53:26.791Z,1.87
2018-03-20T13:55:52.928Z,1.70
2018-03-20T13:58:18.941Z,1.93
2018-03-20T14:00:45.095Z,2.00
2018-03-20T14:03:11.155Z,1.87
2018-03-20T14:05:37.208Z,1.60
2018-03-20T14:08:03.325Z,1.53
2018-03-20T14:10:29.353Z,1.70
2018-03-20T14:12:55.550Z,1.87
2018-03-20T14:15:21.603Z,1.87
2018-03-20T14:17:47.643Z,1.80
2018-03-20T14:20:13.709Z,2.23
2018-03-20T14:22:39.756Z,1.67
2018-03-20T14:25:05.812Z,1.60
2018-03-20T14:27:31.919Z,1.60
2018-03-20T14:29:57.988Z,1.80
2018-03-20T14:32:24.160Z,1.73
2018-03-20T14:34:50.237Z,1.70
2018-03-20T14:37:16.402Z,1.93
2018-03-20T14:39:42.509Z,2.10
2018-03-20T14:42:08.552Z,1.87
2018-03-20T14:44:34.615Z,1.70
2018-03-20T14:47:00.669Z,1.60
2018-03-20T14:49:26.710Z,1.90
2018-03-20T14:51:52.776Z,1.87
2018-03-20T14:54:18.868Z,1.67
2018-03-20T14:56:44.908Z,1.67
2018-03-20T14:59:10.998Z,1.57
2018-03-20T15:01:37.036Z,1.80
2018-03-20T15:04:03.247Z,1.60
2018-03-20T15:06:29.296Z,2.33
2018-03-20T15:08:55.349Z,1.60
2018-03-20T15:11:21.402Z,1.70
2018-03-20T15:13:47.547Z,1.77
2018-03-20T15:16:13.643Z,2.50
2018-03-20T15:18:39.696Z,2.60
2018-03-20T15:21:05.775Z,6.33
2018-03-20T15:23:31.830Z,4.77
2018-03-20T15:25:57.847Z,2.17
2018-03-20T15:28:23.962Z,1.57
2018-03-20T15:30:49.988Z,1.80
2018-03-20T15:33:16.046Z,1.90
2018-03-20T15:35:42.202Z,1.50
2018-03-20T15:38:08.299Z,1.50
2018-03-20T15:40:34.388Z,1.70
2018-03-20T15:43:00.503Z,5.10
2018-03-20T15:45:26.709Z,2.33
2018-03-20T15:47:52.757Z,1.70
2018-03-20T15:50:18.825Z,1.67
2018-03-20T15:52:44.848Z,1.60
2018-03-20T15:55:11.062Z,1.63
2018-03-20T15:57:37.118Z,1.60
2018-03-20T16:00:03.170Z,1.70
2018-03-20T16:02:29.267Z,1.67
2018-03-20T16:04:55.506Z,1.63
2018-03-20T16:07:21.588Z,1.50
2018-03-20T16:09:47.673Z,1.60
2018-03-20T16:12:13.755Z,1.60
2018-03-20T16:14:39.857Z,1.70
2018-03-20T16:17:05.896Z,1.67
2018-03-20T16:19:32.132Z,1.50
2018-03-20T16:21:58.194Z,1.57
2018-03-20T16:24:24.247Z,1.80
2018-03-20T16:26:50.427Z,1.70
2018-03-20T16:29:16.505Z,1.73
2018-03-20T16:31:42.586Z,1.87
2018-03-20T16:34:08.759Z,1.67
2018-03-20T16:36:34.825Z,1.80
2018-03-20T16:39:01.091Z,1.63
2018-03-20T16:41:27.214Z,1.70
2018-03-20T16:43:53.250Z,1.70
2018-03-20T16:46:19.322Z,2.00
2018-03-20T16:48:45.350Z,1.80
2018-03-20T16:51:11.487Z,2.00
2018-03-20T16:53:37.563Z,2.10
2018-03-20T16:56:03.617Z,2.13
2018-03-20T16:58:29.785Z,2.27
2018-03-20T17:00:55.849Z,2.80
2018-03-20T17:03:21.910Z,2.70
2018-03-20T17:05:48.183Z,2.50
2018-03-20T17:08:14.474Z,2.50
2018-03-20T17:10:41.142Z,2.70
2018-03-20T17:13:07.232Z,2.57
2018-03-20T17:15:33.351Z,2.43
2018-03-20T17:17:59.796Z,2.90
2018-03-20T17:20:25.914Z,3.40
2018-03-20T17:22:52.017Z,3.13
2018-03-20T17:25:18.195Z,3.03
2018-03-20T17:27:44.330Z,3.93
2018-03-20T17:30:10.430Z,3.80
2018-03-20T17:32:36.507Z,3.20
2018-03-20T17:35:02.847Z,3.97
2018-03-20T17:37:28.976Z,3.47
2018-03-20T17:39:55.353Z,3.30
2018-03-20T17:42:21.432Z,4.73
2018-03-20T17:44:47.850Z,3.77
2018-03-20T17:47:13.890Z,3.47
2018-03-20T17:49:40.118Z,4.73
2018-03-20T17:52:06.173Z,3.77
2018-03-20T17:54:32.422Z,4.63
2018-03-20T17:56:58.486Z,5.43
2018-03-20T17:59:24.575Z,4.80
2018-03-20T18:01:50.722Z,8.87
2018-03-20T18:04:16.964Z,9.80
2018-03-20T18:06:43.096Z,9.20
2018-03-20T18:09:09.314Z,11.33
2018-03-20T18:11:35.430Z,32.57
2018-03-20T18:14:01.843Z,25.03
2018-03-20T18:16:27.861Z,18.93
2018-03-20T18:18:53.979Z,19.57
2018-03-20T18:21:20.071Z,9.70
2018-03-20T18:23:46.214Z,6.30
2018-03-20T18:26:12.305Z,5.30
2018-03-20T18:28:38.436Z,4.07
2018-03-20T18:31:04.781Z,4.20
2018-03-20T18:33:30.867Z,4.00
2018-03-20T18:35:57.573Z,4.10
2018-03-20T18:38:23.669Z,3.00
2018-03-20T18:43:42.989Z,3.00
2018-03-20T18:46:09.081Z,4.00
2018-03-20T18:48:35.176Z,3.60
2018-03-20T18:51:01.354Z,2.97
2018-03-20T18:53:27.672Z,2.20
2018-03-20T18:55:53.742Z,2.50
2018-03-20T18:58:20.040Z,2.40
2018-03-20T19:00:46.167Z,2.10
2018-03-20T19:03:12.275Z,2.00
2018-03-20T19:05:38.457Z,2.00
2018-03-20T19:08:04.503Z,2.40
2018-03-20T19:10:30.758Z,2.17
2018-03-20T19:12:56.854Z,1.93
2018-03-20T19:15:23.933Z,2.03
2018-03-20T19:17:50.016Z,2.40
2018-03-20T19:20:16.105Z,2.20
2018-03-20T19:22:42.408Z,1.83
2018-03-20T19:25:09.015Z,1.90
2018-03-20T19:27:49.992Z,2.30
2018-03-20T19:30:16.011Z,2.30
2018-03-20T19:32:42.144Z,2.00
2018-03-20T19:35:09.016Z,2.13
2018-03-20T19:37:36.080Z,2.13
2018-03-20T19:40:02.265Z,2.20
2018-03-20T19:42:28.361Z,4.73
2018-03-20T19:44:54.681Z,6.83
2018-03-20T19:47:21.558Z,8.10
2018-03-20T19:49:47.960Z,7.07
2018-03-20T19:52:14.094Z,4.03
2018-03-20T19:54:40.793Z,3.87
2018-03-20T19:57:07.058Z,5.70
2018-03-20T19:59:33.189Z,8.20
2018-03-20T20:01:59.445Z,7.80
2018-03-20T20:04:25.552Z,6.53
2018-03-20T20:06:51.823Z,6.67
2018-03-20T20:09:18.010Z,4.97
2018-03-20T20:11:44.218Z,5.73
2018-03-20T20:14:10.643Z,5.60
2018-03-20T20:16:36.722Z,6.47
2018-03-20T20:19:06.904Z,6.23
2018-03-20T20:21:33.270Z,5.57
2018-03-20T20:23:59.631Z,5.40
2018-03-20T20:26:25.743Z,4.97
2018-03-20T20:28:52.110Z,4.00
2018-03-20T20:31:19.327Z,3.60
2018-03-20T20:33:45.431Z,3.60
2018-03-20T20:36:11.591Z,4.13
2018-03-20T20:38:37.777Z,5.30
2018-03-20T20:41:04.930Z,5.63
2018-03-20T20:43:31.079Z,4.93
2018-03-20T20:45:57.399Z,5.33
2018-03-20T20:48:23.531Z,4.20
2018-03-20T20:50:49.821Z,4.00
2018-03-20T20:53:16.114Z,3.77
2018-03-20T20:55:42.251Z,3.53
2018-03-20T20:58:08.320Z,3.60
2018-03-20T21:00:34.427Z,3.90
2018-03-20T21:03:00.459Z,3.60
2018-03-20T21:05:26.565Z,3.80
2018-03-20T21:07:52.870Z,3.70
2018-03-20T21:10:18.969Z,3.77
2018-03-20T21:12:45.123Z,3.43
2018-03-20T21:15:11.331Z,4.43
2018-03-20T21:17:37.460Z,4.27
2018-03-20T21:20:03.611Z,5.50
2018-03-20T21:22:30.162Z,5.07
2018-03-20T21:24:56.228Z,6.37
2018-03-20T21:27:22.509Z,7.83
2018-03-20T21:29:49.210Z,8.33
2018-03-20T21:32:15.344Z,7.53
2018-03-20T21:34:41.713Z,7.00
2018-03-20T21:37:07.863Z,7.90
2018-03-20T21:39:34.091Z,6.30
2018-03-20T21:42:00.231Z,6.23
2018-03-20T21:44:26.326Z,5.40
2018-03-20T21:46:52.432Z,5.10
2018-03-20T21:49:18.517Z,4.57
2018-03-20T21:51:44.628Z,3.77
2018-03-20T21:54:10.685Z,3.63
2018-03-20T21:56:36.965Z,3.90
2018-03-20T21:59:03.000Z,4.10
2018-03-20T22:01:29.069Z,3.30
2018-03-20T22:03:55.134Z,3.37
2018-03-20T22:06:21.201Z,3.90
2018-03-20T22:08:47.274Z,3.40
2018-03-20T22:11:13.568Z,3.50
2018-03-20T22:13:39.680Z,3.80
2018-03-20T22:16:05.721Z,3.27
2018-03-20T22:18:31.814Z,3.70
2018-03-20T22:20:57.865Z,4.10
2018-03-20T22:23:24.019Z,3.90
2018-03-20T22:25:50.216Z,3.73
2018-03-20T22:28:16.265Z,4.00
2018-03-20T22:30:42.417Z,3.83
2018-03-20T22:33:08.443Z,3.70
2018-03-20T22:35:34.583Z,3.43
2018-03-20T22:38:00.665Z,3.80
2018-03-20T22:40:27.793Z,4.00
2018-03-20T22:42:53.854Z,3.63
2018-03-20T22:45:20.050Z,4.33
2018-03-20T22:47:46.128Z,4.00
2018-03-20T22:50:12.171Z,4.40
2018-03-20T22:52:38.209Z,4.17
2018-03-20T22:55:04.281Z,4.70
2018-03-20T22:57:30.841Z,4.27
2018-03-20T22:59:56.900Z,5.30
2018-03-20T23:02:22.922Z,9.50
2018-03-20T23:07:42.326Z,8.13
2018-03-20T23:10:08.396Z,6.33
2018-03-20T23:12:34.517Z,5.73
2018-03-20T23:15:00.572Z,6.40
2018-03-20T23:17:26.645Z,6.20
2018-03-20T23:19:52.689Z,6.47
2018-03-20T23:22:18.727Z,6.40
2018-03-20T23:24:44.760Z,6.40
2018-03-20T23:27:10.845Z,6.50
2018-03-20T23:29:36.981Z,5.87
2018-03-20T23:32:03.073Z,4.87
2018-03-20T23:34:29.300Z,4.97
2018-03-20T23:36:55.539Z,4.67
2018-03-20T23:39:21.662Z,4.47
2018-03-20T23:41:47.725Z,4.10
2018-03-20T23:44:13.794Z,4.57
2018-03-20T23:46:40.071Z,4.50
2018-03-20T23:49:06.111Z,3.90
2018-03-20T23:51:32.286Z,5.10
2018-03-20T23:53:58.309Z,4.07
2018-03-20T23:56:24.396Z,4.20
2018-03-20T23:58:50.466Z,4.13
